Time;durP1;ratioP1;P1;durP2;ratioP2;P2;SDS_P1;SDS_P2;PMS_P1;PMS_P2;Temp;Humidity;BMP_temperature;BMP_pressure;BME280_temperature;BME280_humidity;BME280_pressure;Samples;Min_cycle;Max_cycle;Signal;HPM_P1;HPM_P2
2024/04/16 00:02:24;;;;;;;;;;;6.40;99.90;;;;;;5387202;26;19930;-81
2024/04/16 00:04:50;;;;;;;;;;;6.40;99.90;;;;;;5421492;26;19936;-81
2024/04/16 00:07:15;;;;;;;;;;;6.50;99.90;;;;;;5425732;26;19928;-82
2024/04/16 00:09:41;;;;;;;;;;;6.50;99.90;;;;;;5430681;26;19929;-80
2024/04/16 00:12:07;;;;;;;;;;;6.50;99.90;;;;;;5427878;26;19929;-82
2024/04/16 00:14:32;;;;;;;;;;;6.50;99.90;;;;;;5430166;26;20386;-82
2024/04/16 00:16:58;;;;;;;;;;;6.50;1.00;;;;;;5429453;26;19945;-81
2024/04/16 00:19:26;;;;;;;;;;;6.50;1.00;;;;;;5399944;26;19937;-83
2024/04/16 00:21:58;;;;;;;;;;;6.50;1.00;;;;;;5429517;26;20009;-82
2024/04/16 00:24:23;;;;;;;;;;;6.50;1.00;;;;;;5429355;26;19929;-83
2024/04/16 00:26:49;;;;;;;;;;;6.60;1.00;;;;;;5442806;21;19929;-83
2024/04/16 00:29:14;;;;;;;;;;;6.60;1.00;;;;;;5422630;26;19929;-84
2024/04/16 00:31:40;;;;;;;;;;;6.60;1.00;;;;;;5421227;26;19929;-83
2024/04/16 00:34:06;;;;;;;;;;;6.60;1.00;;;;;;5404635;26;19937;-85
2024/04/16 00:36:32;;;;;;;;;;;6.60;1.00;;;;;;5397487;26;19930;-85
2024/04/16 00:38:58;;;;;;;;;;;6.50;1.00;;;;;;5350393;26;19930;-86
2024/04/16 00:41:23;;;;;;;;;;;6.50;1.00;;;;;;5361859;26;19941;-85
2024/04/16 00:43:49;;;;;;;;;;;6.50;1.00;;;;;;5384404;26;20275;-85
2024/04/16 00:46:14;;;;;;;;;;;6.50;1.00;;;;;;5386190;26;19929;-86
2024/04/16 00:48:39;;;;;;;;;;;6.50;1.00;;;;;;5357019;26;19938;-85
2024/04/16 00:51:05;;;;;;;;;;;6.40;99.90;;;;;;5355659;26;19930;-84
2024/04/16 00:53:31;;;;;;;;;;;6.40;99.90;;;;;;5380103;26;20003;-87
2024/04/16 00:55:57;;;;;;;;;;;6.30;99.90;;;;;;5385371;26;20150;-84
2024/04/16 00:58:23;;;;;;;;;;;6.20;99.90;;;;;;5382962;26;19941;-85
2024/04/16 01:00:48;;;;;;;;;;;6.10;99.90;;;;;;5382493;26;19937;-84
2024/04/16 01:03:14;;;;;;;;;;;6.00;1.00;;;;;;5377780;26;19936;-85
2024/04/16 01:05:40;;;;;;;;;;;6.00;1.00;;;;;;5372369;26;19942;-85
2024/04/16 01:08:07;;;;;;;;;;;6.00;1.00;;;;;;5370516;26;19930;-85
2024/04/16 01:10:37;;;;;;;;;;;5.90;1.00;;;;;;5380810;26;20303;-84
2024/04/16 01:13:02;;;;;;;;;;;5.90;1.00;;;;;;5379658;26;19995;-85
2024/04/16 01:15:28;;;;;;;;;;;6.00;99.90;;;;;;5382655;26;19938;-84
2024/04/16 01:17:53;;;;;;;;;;;6.00;99.90;;;;;;5382404;26;19996;-86
2024/04/16 01:20:19;;;;;;;;;;;6.00;99.90;;;;;;5385572;26;19937;-85
2024/04/16 01:22:49;;;;;;;;;;;6.00;99.90;;;;;;5384926;26;20260;-86
2024/04/16 01:25:15;;;;;;;;;;;6.10;99.90;;;;;;5381304;26;19930;-85
2024/04/16 01:27:40;;;;;;;;;;;6.10;99.90;;;;;;5387042;26;20379;-87
2024/04/16 01:30:06;;;;;;;;;;;6.10;99.90;;;;;;5384474;26;20341;-86
2024/04/16 01:32:32;;;;;;;;;;;6.20;99.90;;;;;;5384885;26;19930;-84
2024/04/16 01:34:57;;;;;;;;;;;6.10;99.90;;;;;;5387232;26;19930;-86
2024/04/16 01:37:23;;;;;;;;;;;6.10;19.10;;;;;;5378998;26;19941;-86
2024/04/16 01:39:48;;;;;;;;;;;6.10;14.50;;;;;;5385142;26;19929;-85
2024/04/16 01:42:14;;;;;;;;;;;6.10;99.90;;;;;;5376083;26;20325;-85
2024/04/16 01:44:39;;;;;;;;;;;6.00;30.30;;;;;;5386165;26;19929;-85
2024/04/16 01:47:04;;;;;;;;;;;6.00;1.00;;;;;;5384228;26;19938;-86
2024/04/16 01:49:30;;;;;;;;;;;6.00;53.50;;;;;;5380775;26;20355;-85
2024/04/16 01:51:56;;;;;;;;;;;6.00;1.00;;;;;;5386425;26;19949;-84
2024/04/16 01:54:21;;;;;;;;;;;6.00;1.00;;;;;;5384666;26;19929;-86
2024/04/16 01:56:50;;;;;;;;;;;6.00;1.00;;;;;;5386592;26;20350;-86
2024/04/16 01:59:16;;;;;;;;;;;6.00;1.00;;;;;;5387650;26;19973;-87
2024/04/16 02:01:42;;;;;;;;;;;5.90;1.00;;;;;;5387743;26;19988;-86
2024/04/16 02:04:07;;;;;;;;;;;5.90;1.00;;;;;;5385835;26;20287;-86
2024/04/16 02:06:33;;;;;;;;;;;5.90;1.00;;;;;;5379967;26;19930;-87
2024/04/16 02:08:58;;;;;;;;;;;5.90;1.00;;;;;;5386098;26;19930;-86
2024/04/16 02:11:24;;;;;;;;;;;5.90;1.00;;;;;;5387713;26;19929;-86
2024/04/16 02:13:49;;;;;;;;;;;5.90;1.00;;;;;;5385958;26;19930;-87
2024/04/16 02:16:15;;;;;;;;;;;5.90;1.00;;;;;;5378034;26;19945;-86
2024/04/16 02:18:40;;;;;;;;;;;5.90;1.00;;;;;;5348589;26;19997;-84
2024/04/16 02:21:06;;;;;;;;;;;5.80;4.80;;;;;;5348290;26;19941;-85
2024/04/16 02:23:31;;;;;;;;;;;5.80;34.50;;;;;;5356188;26;20344;-84
2024/04/16 02:25:57;;;;;;;;;;;5.80;33.60;;;;;;5408384;26;19937;-85
2024/04/16 02:28:22;;;;;;;;;;;5.80;99.90;;;;;;5367037;26;19998;-85
2024/04/16 02:30:48;;;;;;;;;;;5.80;99.90;;;;;;5383397;26;19938;-85
2024/04/16 02:33:14;;;;;;;;;;;5.80;99.90;;;;;;5387800;26;19957;-86
2024/04/16 02:35:39;;;;;;;;;;;5.90;99.90;;;;;;5376158;26;19937;-86
2024/04/16 02:38:05;;;;;;;;;;;5.90;99.90;;;;;;5365369;26;19938;-87
2024/04/16 02:40:30;;;;;;;;;;;6.00;99.90;;;;;;5353804;26;20277;-87
2024/04/16 02:42:56;;;;;;;;;;;6.00;99.90;;;;;;5367448;26;19976;-86
2024/04/16 02:45:22;;;;;;;;;;;6.10;99.90;;;;;;5386169;26;19936;-86
2024/04/16 02:47:47;;;;;;;;;;;6.20;99.90;;;;;;5387147;26;19937;-85
2024/04/16 02:50:13;;;;;;;;;;;6.20;99.90;;;;;;5386334;26;19941;-85
2024/04/16 02:52:38;;;;;;;;;;;6.30;99.90;;;;;;5383912;26;19930;-86
2024/04/16 02:55:05;;;;;;;;;;;6.30;99.90;;;;;;5381532;26;19930;-85
2024/04/16 02:57:30;;;;;;;;;;;6.30;99.90;;;;;;5381709;26;19937;-85
2024/04/16 02:59:56;;;;;;;;;;;6.30;99.90;;;;;;5383992;26;19961;-85
2024/04/16 03:02:21;;;;;;;;;;;6.30;99.90;;;;;;5383435;26;20272;-85
2024/04/16 03:04:47;;;;;;;;;;;6.30;1.00;;;;;;5384348;26;19936;-83
2024/04/16 03:07:12;;;;;;;;;;;6.30;1.00;;;;;;5380634;26;19936;-86
2024/04/16 03:09:38;;;;;;;;;;;6.30;1.00;;;;;;5383763;26;20380;-85
2024/04/16 03:12:03;;;;;;;;;;;6.30;1.00;;;;;;5382667;26;19937;-83
2024/04/16 03:14:29;;;;;;;;;;;6.30;1.00;;;;;;5375934;26;20294;-86
2024/04/16 03:16:54;;;;;;;;;;;6.30;1.00;;;;;;5367563;26;19929;-83
2024/04/16 03:19:20;;;;;;;;;;;6.30;1.00;;;;;;5381773;26;19941;-87
2024/04/16 03:21:46;;;;;;;;;;;6.30;1.00;;;;;;5382372;26;20001;-86
2024/04/16 03:24:11;;;;;;;;;;;6.30;1.00;;;;;;5378769;26;19930;-84
2024/04/16 03:26:37;;;;;;;;;;;6.30;1.00;;;;;;5381587;26;19937;-85
2024/04/16 03:29:02;;;;;;;;;;;6.30;1.00;;;;;;5381041;26;19930;-86
2024/04/16 03:31:27;;;;;;;;;;;6.30;1.00;;;;;;5381102;26;19936;-83
2024/04/16 03:33:53;;;;;;;;;;;6.30;1.00;;;;;;5381443;26;19930;-85
2024/04/16 03:36:18;;;;;;;;;;;6.30;1.00;;;;;;5363867;26;20372;-85
2024/04/16 03:38:44;;;;;;;;;;;6.30;1.00;;;;;;5380661;26;19929;-84
2024/04/16 03:41:09;;;;;;;;;;;6.20;1.00;;;;;;5376637;26;19937;-86
2024/04/16 03:43:35;;;;;;;;;;;6.20;1.00;;;;;;5385885;26;20271;-85
2024/04/16 03:46:02;;;;;;;;;;;6.10;1.00;;;;;;5369218;26;19930;-84
2024/04/16 03:48:27;;;;;;;;;;;6.00;1.00;;;;;;5384601;26;19929;-84
2024/04/16 03:50:53;;;;;;;;;;;5.90;1.00;;;;;;5360469;26;19930;-85
2024/04/16 03:53:18;;;;;;;;;;;5.90;1.00;;;;;;5351827;26;19930;-85
2024/04/16 03:55:44;;;;;;;;;;;5.80;1.00;;;;;;5349639;26;19938;-85
2024/04/16 03:58:10;;;;;;;;;;;5.80;1.00;;;;;;5377417;26;20388;-85
2024/04/16 04:03:20;;;;;;;;;;;5.80;1.00;;;;;;5385272;26;19936;-87
2024/04/16 04:05:49;;;;;;;;;;;5.80;1.00;;;;;;5385633;26;19929;-84
2024/04/16 04:08:14;;;;;;;;;;;5.90;1.00;;;;;;5384825;26;20267;-84
2024/04/16 04:10:41;;;;;;;;;;;5.90;1.00;;;;;;5385982;26;19938;-87
2024/04/16 04:13:06;;;;;;;;;;;6.00;1.70;;;;;;5369768;26;19957;-86
2024/04/16 04:15:32;;;;;;;;;;;6.00;2.70;;;;;;5380436;26;19929;-85
2024/04/16 04:17:57;;;;;;;;;;;6.00;4.90;;;;;;5384532;26;20392;-84
2024/04/16 04:20:23;;;;;;;;;;;6.00;3.90;;;;;;5382634;26;20361;-86
2024/04/16 04:22:49;;;;;;;;;;;6.00;1.00;;;;;;5384278;26;19935;-85
2024/04/16 04:25:14;;;;;;;;;;;6.00;1.00;;;;;;5380116;26;19930;-85
2024/04/16 04:27:41;;;;;;;;;;;6.00;1.00;;;;;;5384020;26;19930;-85
2024/04/16 04:30:07;;;;;;;;;;;6.00;1.00;;;;;;5384397;26;19930;-86
2024/04/16 04:32:33;;;;;;;;;;;6.00;1.00;;;;;;5382242;26;19937;-83
2024/04/16 04:34:59;;;;;;;;;;;6.00;1.00;;;;;;5385567;26;19936;-85
2024/04/16 04:37:25;;;;;;;;;;;6.00;1.00;;;;;;5407855;26;19936;-84
2024/04/16 04:39:50;;;;;;;;;;;6.00;1.00;;;;;;5372976;26;19937;-86
2024/04/16 04:42:16;;;;;;;;;;;6.00;1.00;;;;;;5383898;26;20429;-85
2024/04/16 04:44:41;;;;;;;;;;;6.10;1.00;;;;;;5383838;26;19929;-83
2024/04/16 04:47:07;;;;;;;;;;;6.10;1.00;;;;;;5383509;26;19941;-86
2024/04/16 04:49:32;;;;;;;;;;;6.10;1.00;;;;;;5375280;26;19930;-84
2024/04/16 04:51:58;;;;;;;;;;;6.10;1.00;;;;;;5382982;26;19935;-83
2024/04/16 04:54:23;;;;;;;;;;;6.10;1.00;;;;;;5385668;26;19935;-86
2024/04/16 04:56:49;;;;;;;;;;;6.10;1.00;;;;;;5388362;26;20283;-85
2024/04/16 04:59:15;;;;;;;;;;;6.10;1.00;;;;;;5386946;26;19941;-86
2024/04/16 05:01:40;;;;;;;;;;;6.10;1.00;;;;;;5388681;26;20276;-86
2024/04/16 05:04:06;;;;;;;;;;;6.20;1.00;;;;;;5382019;26;19936;-85
2024/04/16 05:06:32;;;;;;;;;;;6.30;1.00;;;;;;5381958;26;19969;-86
2024/04/16 05:08:58;;;;;;;;;;;6.40;1.00;;;;;;5353630;26;19930;-86
2024/04/16 05:11:23;;;;;;;;;;;6.50;1.00;;;;;;5384164;26;19962;-87
2024/04/16 05:13:49;;;;;;;;;;;6.70;1.00;;;;;;5386549;26;19930;-86
2024/04/16 05:16:15;;;;;;;;;;;6.90;1.00;;;;;;5385131;26;19937;-87
2024/04/16 05:18:41;;;;;;;;;;;7.00;1.00;;;;;;5387464;26;19957;-86
2024/04/16 05:21:06;;;;;;;;;;;7.10;1.00;;;;;;5382311;26;19930;-85
2024/04/16 05:23:32;;;;;;;;;;;7.20;1.00;;;;;;5384851;26;19936;-86
2024/04/16 05:26:02;;;;;;;;;;;7.20;1.00;;;;;;5388747;26;19999;-86
2024/04/16 05:28:31;;;;;;;;;;;7.20;1.00;;;;;;5385333;26;19936;-86
2024/04/16 05:30:57;;;;;;;;;;;7.10;1.00;;;;;;5387624;26;19929;-87
2024/04/16 05:33:24;;;;;;;;;;;7.10;1.00;;;;;;5385989;26;20395;-86
2024/04/16 05:35:49;;;;;;;;;;;7.00;1.00;;;;;;5388628;26;19930;-86
2024/04/16 05:38:15;;;;;;;;;;;6.90;1.00;;;;;;5354726;26;19941;-87
2024/04/16 05:40:41;;;;;;;;;;;6.80;1.00;;;;;;5385739;26;20232;-84
2024/04/16 05:43:06;;;;;;;;;;;6.80;1.00;;;;;;5378324;26;19937;-83
2024/04/16 05:45:32;;;;;;;;;;;6.80;1.00;;;;;;5383735;26;19929;-83
2024/04/16 05:47:57;;;;;;;;;;;6.80;1.00;;;;;;5382243;26;19929;-84
2024/04/16 05:50:23;;;;;;;;;;;6.90;1.00;;;;;;5379580;26;19946;-83
2024/04/16 05:52:48;;;;;;;;;;;6.90;1.00;;;;;;5365991;26;19998;-82
2024/04/16 05:55:14;;;;;;;;;;;6.80;1.00;;;;;;5382651;26;19929;-80
2024/04/16 05:57:39;;;;;;;;;;;6.80;1.00;;;;;;5362299;26;19929;-82
2024/04/16 06:00:05;;;;;;;;;;;6.80;1.00;;;;;;5374985;26;19930;-81
2024/04/16 06:02:31;;;;;;;;;;;6.90;1.00;;;;;;5380958;26;19933;-79
2024/04/16 06:04:56;;;;;;;;;;;6.90;1.00;;;;;;5378749;26;19941;-82
2024/04/16 06:07:22;;;;;;;;;;;7.00;1.00;;;;;;5382351;26;19936;-82
2024/04/16 06:09:47;;;;;;;;;;;6.90;1.00;;;;;;5383585;26;20357;-82
2024/04/16 06:12:13;;;;;;;;;;;6.90;1.00;;;;;;5367278;26;19929;-83
2024/04/16 06:14:38;;;;;;;;;;;6.90;1.00;;;;;;5367943;26;20014;-82
2024/04/16 06:17:04;;;;;;;;;;;6.90;1.00;;;;;;5383511;26;19929;-83
2024/04/16 06:19:29;;;;;;;;;;;6.80;1.00;;;;;;5364548;26;19930;-83
2024/04/16 06:21:55;;;;;;;;;;;6.80;1.00;;;;;;5371014;26;19937;-82
2024/04/16 06:24:20;;;;;;;;;;;6.70;1.00;;;;;;5396523;26;19933;-81
2024/04/16 06:26:46;;;;;;;;;;;6.70;1.00;;;;;;5388256;26;19938;-83
2024/04/16 06:29:11;;;;;;;;;;;6.70;1.00;;;;;;5401812;21;19941;-84
2024/04/16 06:31:37;;;;;;;;;;;6.60;1.00;;;;;;5426277;26;19935;-83
2024/04/16 06:34:03;;;;;;;;;;;6.60;2.90;;;;;;5412984;26;19929;-83
2024/04/16 06:36:29;;;;;;;;;;;6.60;7.40;;;;;;5417686;26;19936;-81
2024/04/16 06:38:54;;;;;;;;;;;6.60;15.50;;;;;;5413490;26;19929;-82
2024/04/16 06:41:19;;;;;;;;;;;6.50;14.70;;;;;;5429927;26;20290;-82
2024/04/16 06:43:45;;;;;;;;;;;6.50;12.10;;;;;;5430732;26;19975;-82
2024/04/16 06:46:11;;;;;;;;;;;6.50;6.50;;;;;;5431576;26;19936;-82
2024/04/16 06:48:36;;;;;;;;;;;6.40;1.60;;;;;;5433705;26;19929;-81
2024/04/16 06:51:01;;;;;;;;;;;6.40;5.90;;;;;;5428920;26;19930;-81
2024/04/16 06:53:27;;;;;;;;;;;6.40;6.90;;;;;;5437611;26;19941;-82
2024/04/16 06:56:03;;;;;;;;;;;6.40;2.90;;;;;;5394719;26;19937;-82
2024/04/16 06:58:28;;;;;;;;;;;6.50;5.10;;;;;;5428009;26;19936;-82
2024/04/16 07:00:57;;;;;;;;;;;6.50;5.70;;;;;;5431846;26;19929;-81
2024/04/16 07:03:23;;;;;;;;;;;6.50;1.00;;;;;;5430578;26;19949;-83
2024/04/16 07:05:49;;;;;;;;;;;6.50;1.00;;;;;;5426336;26;20486;-81
2024/04/16 07:08:14;;;;;;;;;;;6.50;2.40;;;;;;5428045;26;19940;-80
2024/04/16 07:10:40;;;;;;;;;;;6.50;4.90;;;;;;5422445;26;20478;-82
2024/04/16 07:13:06;;;;;;;;;;;6.50;2.10;;;;;;5418329;26;19936;-81
2024/04/16 07:15:33;;;;;;;;;;;6.50;5.40;;;;;;5431240;26;19974;-80
2024/04/16 07:17:58;;;;;;;;;;;6.60;1.80;;;;;;5429288;26;19975;-80
2024/04/16 07:20:24;;;;;;;;;;;6.60;1.00;;;;;;5432113;26;19940;-81
2024/04/16 07:22:49;;;;;;;;;;;6.60;4.40;;;;;;5424049;26;20294;-82
2024/04/16 07:25:15;;;;;;;;;;;6.60;4.60;;;;;;5432017;26;19933;-81
2024/04/16 07:27:40;;;;;;;;;;;6.70;8.60;;;;;;5432562;26;19933;-83
2024/04/16 07:30:07;;;;;;;;;;;6.80;11.50;;;;;;5431281;26;20436;-79
2024/04/16 07:32:33;;;;;;;;;;;6.80;14.80;;;;;;5431261;26;19933;-81
2024/04/16 07:34:58;;;;;;;;;;;6.90;18.80;;;;;;5424358;26;19941;-82
2024/04/16 07:37:24;;;;;;;;;;;6.90;22.50;;;;;;5406931;26;19929;-81
2024/04/16 07:39:50;;;;;;;;;;;7.00;25.60;;;;;;5414006;26;19937;-84
2024/04/16 07:42:15;;;;;;;;;;;7.20;25.90;;;;;;5429673;26;20359;-81
2024/04/16 07:44:41;;;;;;;;;;;7.30;23.00;;;;;;5416386;26;19935;-82
2024/04/16 07:47:07;;;;;;;;;;;7.30;19.30;;;;;;5431979;26;20395;-83
2024/04/16 07:49:32;;;;;;;;;;;7.30;18.80;;;;;;5432472;26;19937;-83
2024/04/16 07:51:58;;;;;;;;;;;7.40;22.60;;;;;;5429470;26;19929;-83
2024/04/16 07:54:23;;;;;;;;;;;7.40;25.30;;;;;;5406084;26;19944;-84
2024/04/16 07:56:50;;;;;;;;;;;7.50;26.90;;;;;;5414249;26;19929;-81
2024/04/16 07:59:15;;;;;;;;;;;7.60;26.40;;;;;;5405366;26;19937;-82
2024/04/16 08:01:41;;;;;;;;;;;7.70;23.10;;;;;;5425953;26;19929;-82
2024/04/16 08:04:06;;;;;;;;;;;7.70;23.30;;;;;;5422734;26;19929;-81
2024/04/16 08:06:32;;;;;;;;;;;7.90;26.20;;;;;;5411042;26;19929;-80
2024/04/16 08:08:57;;;;;;;;;;;8.10;22.30;;;;;;5418332;26;19937;-81
2024/04/16 08:11:23;;;;;;;;;;;8.20;17.20;;;;;;5405754;26;19929;-81
2024/04/16 08:13:53;;;;;;;;;;;8.30;13.60;;;;;;5428980;26;19929;-82
2024/04/16 08:16:18;;;;;;;;;;;8.60;4.40;;;;;;5422060;26;19937;-81
2024/04/16 08:18:44;;;;;;;;;;;8.70;1.00;;;;;;5421845;26;19940;-81
2024/04/16 08:21:09;;;;;;;;;;;8.70;1.00;;;;;;5422352;26;20381;-81
2024/04/16 08:23:35;;;;;;;;;;;8.80;1.00;;;;;;5406162;26;20253;-83
2024/04/16 08:26:04;;;;;;;;;;;8.90;1.00;;;;;;5407101;26;19936;-79
2024/04/16 08:28:30;;;;;;;;;;;9.00;1.00;;;;;;5420734;26;20252;-81
2024/04/16 08:31:01;;;;;;;;;;;9.10;1.00;;;;;;5424328;26;19929;-83
2024/04/16 08:33:27;;;;;;;;;;;9.20;1.00;;;;;;5431295;26;19929;-80
2024/04/16 08:35:52;;;;;;;;;;;9.20;1.00;;;;;;5429708;26;19975;-82
2024/04/16 08:38:18;;;;;;;;;;;9.10;1.00;;;;;;5427577;26;19949;-83
2024/04/16 08:40:45;;;;;;;;;;;9.20;1.00;;;;;;5431090;26;19929;-83
2024/04/16 08:43:11;;;;;;;;;;;9.20;1.00;;;;;;5426963;26;19929;-83
2024/04/16 08:45:36;;;;;;;;;;;9.20;1.00;;;;;;5419244;26;19934;-81
2024/04/16 08:48:03;;;;;;;;;;;9.30;1.00;;;;;;5412980;26;19983;-82
2024/04/16 08:50:29;;;;;;;;;;;9.40;1.00;;;;;;5430107;26;20377;-81
2024/04/16 08:52:57;;;;;;;;;;;9.30;1.00;;;;;;5413898;26;19929;-84
2024/04/16 08:55:24;;;;;;;;;;;9.30;1.00;;;;;;5406584;26;19950;-82
2024/04/16 08:57:49;;;;;;;;;;;9.50;1.00;;;;;;5415892;26;19955;-81
2024/04/16 09:00:15;;;;;;;;;;;9.80;1.00;;;;;;5434151;26;19949;-83
2024/04/16 09:02:42;;;;;;;;;;;10.20;1.00;;;;;;5432470;26;19935;-82
2024/04/16 09:05:07;;;;;;;;;;;11.50;1.00;;;;;;5427069;26;19928;-86
2024/04/16 09:07:33;;;;;;;;;;;12.40;99.90;;;;;;5414282;26;19975;-83
2024/04/16 09:09:59;;;;;;;;;;;12.60;1.00;;;;;;5417167;26;19936;-83
2024/04/16 09:12:25;;;;;;;;;;;12.30;99.90;;;;;;5432913;26;19929;-83
2024/04/16 09:14:51;;;;;;;;;;;12.30;1.00;;;;;;5432972;26;20402;-83
2024/04/16 09:17:16;;;;;;;;;;;12.60;1.00;;;;;;5432213;26;19929;-83
2024/04/16 09:19:42;;;;;;;;;;;12.40;1.00;;;;;;5431352;26;19929;-83
2024/04/16 09:22:07;;;;;;;;;;;12.30;1.00;;;;;;5433488;26;19929;-81
2024/04/16 09:24:33;;;;;;;;;;;12.30;1.00;;;;;;5416011;26;19956;-83
2024/04/16 09:26:59;;;;;;;;;;;12.30;99.90;;;;;;5424035;26;19929;-84
2024/04/16 09:29:25;;;;;;;;;;;13.30;99.90;;;;;;5432038;26;19929;-83
2024/04/16 09:32:00;;;;;;;;;;;13.80;30.80;;;;;;5432897;26;20002;-82
2024/04/16 09:34:26;;;;;;;;;;;13.90;1.00;;;;;;5430307;26;19949;-84
2024/04/16 09:36:51;;;;;;;;;;;16.10;1.00;;;;;;5430040;26;19936;-83
2024/04/16 09:39:21;;;;;;;;;;;18.90;99.90;;;;;;5431983;26;19929;-85
2024/04/16 09:41:50;;;;;;;;;;;20.20;99.90;;;;;;5415876;26;19929;-82
2024/04/16 09:44:16;;;;;;;;;;;20.70;99.90;;;;;;5421698;26;19976;-83
2024/04/16 09:46:43;;;;;;;;;;;20.60;99.90;;;;;;5428520;26;19933;-83
2024/04/16 09:49:18;;;;;;;;;;;21.70;99.90;;;;;;5432581;26;19929;-83
2024/04/16 09:51:47;;;;;;;;;;;23.10;99.90;;;;;;5419319;26;19973;-83
2024/04/16 09:54:13;;;;;;;;;;;22.50;99.90;;;;;;5430343;26;19929;-83
2024/04/16 09:56:40;;;;;;;;;;;21.20;99.90;;;;;;5432532;26;20028;-84
2024/04/16 09:59:07;;;;;;;;;;;19.90;99.90;;;;;;5399985;26;19936;-82
2024/04/16 10:01:33;;;;;;;;;;;20.00;99.90;;;;;;5417045;26;19942;-83
2024/04/16 10:03:58;;;;;;;;;;;21.20;99.90;;;;;;5425776;26;19930;-84
2024/04/16 10:06:24;;;;;;;;;;;21.80;99.90;;;;;;5430215;26;19936;-83
2024/04/16 10:08:49;;;;;;;;;;;21.00;99.90;;;;;;5410090;26;19929;-83
2024/04/16 10:11:16;;;;;;;;;;;20.60;99.90;;;;;;5429079;26;19933;-84
2024/04/16 10:13:41;;;;;;;;;;;20.10;99.90;;;;;;5429169;26;19929;-83
2024/04/16 10:16:17;;;;;;;;;;;18.90;99.90;;;;;;5430783;26;19978;-84
2024/04/16 10:18:51;;;;;;;;;;;17.90;99.90;;;;;;5431106;26;19929;-83
2024/04/16 10:21:21;;;;;;;;;;;17.80;99.90;;;;;;5430243;26;19936;-83
2024/04/16 10:23:47;;;;;;;;;;;17.20;99.90;;;;;;5432040;26;19936;-83
2024/04/16 10:26:14;;;;;;;;;;;16.40;99.90;;;;;;5417709;26;19929;-81
2024/04/16 10:28:42;;;;;;;;;;;15.70;99.90;;;;;;5428332;26;19937;-83
2024/04/16 10:31:10;;;;;;;;;;;15.50;99.90;;;;;;5429891;26;19929;-83
2024/04/16 10:33:37;;;;;;;;;;;15.40;99.90;;;;;;5431713;26;19980;-84
2024/04/16 10:36:07;;;;;;;;;;;16.50;99.90;;;;;;5431891;26;19945;-84
2024/04/16 10:38:33;;;;;;;;;;;19.40;99.90;;;;;;5431580;26;19936;-84
2024/04/16 10:40:59;;;;;;;;;;;19.10;99.90;;;;;;5429475;26;19941;-83
2024/04/16 10:43:25;;;;;;;;;;;18.50;99.90;;;;;;5415726;26;19929;-83
2024/04/16 10:45:51;;;;;;;;;;;18.20;99.90;;;;;;5427915;26;19935;-82
2024/04/16 10:48:26;;;;;;;;;;;17.30;99.90;;;;;;5425490;26;19929;-82
2024/04/16 10:50:55;;;;;;;;;;;17.30;99.90;;;;;;5430154;26;19933;-84
2024/04/16 10:53:20;;;;;;;;;;;16.80;99.90;;;;;;5428787;26;19941;-80
2024/04/16 10:55:46;;;;;;;;;;;16.30;99.90;;;;;;5430829;26;20281;-83
2024/04/16 10:58:13;;;;;;;;;;;16.10;99.90;;;;;;5429233;26;19944;-83
2024/04/16 11:00:39;;;;;;;;;;;15.90;99.90;;;;;;5417405;26;19933;-82
2024/04/16 11:03:05;;;;;;;;;;;15.80;99.90;;;;;;5426537;26;19929;-83
2024/04/16 11:05:31;;;;;;;;;;;15.80;99.90;;;;;;5429658;26;19930;-83
2024/04/16 11:07:56;;;;;;;;;;;15.20;99.90;;;;;;5428918;26;19936;-83
2024/04/16 11:10:22;;;;;;;;;;;14.60;99.90;;;;;;5394715;26;19998;-83
2024/04/16 11:12:47;;;;;;;;;;;14.10;99.90;;;;;;5419597;26;19929;-82
2024/04/16 11:15:13;;;;;;;;;;;13.90;1.00;;;;;;5427524;26;19936;-82
2024/04/16 11:17:38;;;;;;;;;;;14.10;1.00;;;;;;5431642;26;19929;-82
2024/04/16 11:20:04;;;;;;;;;;;14.20;1.00;;;;;;5430870;26;20279;-85
2024/04/16 11:22:31;;;;;;;;;;;14.00;1.00;;;;;;5428341;26;19929;-84
2024/04/16 11:24:56;;;;;;;;;;;13.80;1.00;;;;;;5431211;26;19953;-84
2024/04/16 11:27:22;;;;;;;;;;;13.50;1.00;;;;;;5418136;26;20422;-83
2024/04/16 11:29:49;;;;;;;;;;;13.40;1.00;;;;;;5429620;26;20452;-83
2024/04/16 11:32:18;;;;;;;;;;;13.20;1.00;;;;;;5412185;26;19984;-84
2024/04/16 11:34:47;;;;;;;;;;;12.90;15.70;;;;;;5431094;26;19929;-84
2024/04/16 11:37:15;;;;;;;;;;;12.80;99.90;;;;;;5427571;26;19935;-82
2024/04/16 11:39:42;;;;;;;;;;;12.50;1.00;;;;;;5426584;26;19929;-84
2024/04/16 11:42:08;;;;;;;;;;;12.20;92.80;;;;;;5425677;26;19933;-83
2024/04/16 11:44:34;;;;;;;;;;;11.90;99.90;;;;;;5420217;26;19938;-83
2024/04/16 11:47:00;;;;;;;;;;;11.70;99.90;;;;;;5425610;26;20223;-83
2024/04/16 11:49:26;;;;;;;;;;;11.40;1.00;;;;;;5424455;26;19939;-84
2024/04/16 11:51:51;;;;;;;;;;;11.10;99.90;;;;;;5419454;26;19929;-80
2024/04/16 11:54:17;;;;;;;;;;;10.90;99.90;;;;;;5422306;26;19929;-82
2024/04/16 11:56:42;;;;;;;;;;;10.70;68.70;;;;;;5417650;26;19942;-82
2024/04/16 11:59:07;;;;;;;;;;;10.70;99.90;;;;;;5421329;26;19933;-81
2024/04/16 12:01:33;;;;;;;;;;;10.60;99.90;;;;;;5414717;26;19951;-80
2024/04/16 12:03:58;;;;;;;;;;;10.60;99.90;;;;;;5436661;26;20279;-81
2024/04/16 12:06:24;;;;;;;;;;;11.00;99.90;;;;;;5421224;26;19937;-81
2024/04/16 12:08:50;;;;;;;;;;;11.80;1.00;;;;;;5428971;26;19935;-80
2024/04/16 12:11:15;;;;;;;;;;;12.50;1.00;;;;;;5430017;26;19971;-80
2024/04/16 12:13:41;;;;;;;;;;;13.00;17.50;;;;;;5426061;26;19974;-80
2024/04/16 12:16:06;;;;;;;;;;;13.40;1.00;;;;;;5419351;26;19937;-80
2024/04/16 12:18:32;;;;;;;;;;;13.60;21.40;;;;;;5426909;26;19940;-82
2024/04/16 12:21:01;;;;;;;;;;;13.60;99.90;;;;;;5434876;26;19929;-85
2024/04/16 12:23:26;;;;;;;;;;;13.60;99.90;;;;;;5412253;26;19930;-83
2024/04/16 12:25:51;;;;;;;;;;;13.60;99.90;;;;;;5420403;26;19929;-83
2024/04/16 12:28:17;;;;;;;;;;;13.50;99.90;;;;;;5421572;26;19940;-81
2024/04/16 12:30:43;;;;;;;;;;;13.30;99.90;;;;;;5449670;21;20242;-82
2024/04/16 12:33:08;;;;;;;;;;;13.10;99.90;;;;;;5410438;26;19997;-81
2024/04/16 12:35:34;;;;;;;;;;;13.00;99.90;;;;;;5406498;26;19949;-81
2024/04/16 12:37:59;;;;;;;;;;;12.90;99.90;;;;;;5407700;26;19929;-80
2024/04/16 12:40:24;;;;;;;;;;;12.90;99.90;;;;;;5394854;26;19938;-81
2024/04/16 12:42:51;;;;;;;;;;;13.10;99.90;;;;;;5368075;26;19933;-82
2024/04/16 12:45:17;;;;;;;;;;;13.20;99.90;;;;;;5367207;26;19945;-82
2024/04/16 12:47:42;;;;;;;;;;;13.40;80.90;;;;;;5366962;26;20003;-81
2024/04/16 12:50:08;;;;;;;;;;;13.70;98.00;;;;;;5362997;26;19937;-78
2024/04/16 12:52:34;;;;;;;;;;;14.10;17.10;;;;;;5364292;26;19948;-78
2024/04/16 12:55:00;;;;;;;;;;;14.70;1.00;;;;;;5371927;26;19934;-83
2024/04/16 12:57:25;;;;;;;;;;;15.00;1.00;;;;;;5373441;26;19999;-83
2024/04/16 12:59:52;;;;;;;;;;;15.10;1.00;;;;;;5375454;26;20424;-83
2024/04/16 13:02:17;;;;;;;;;;;15.20;1.00;;;;;;5376464;26;20007;-82
2024/04/16 13:04:43;;;;;;;;;;;15.30;1.00;;;;;;5378611;26;19977;-83
2024/04/16 13:07:08;;;;;;;;;;;15.20;1.00;;;;;;5399049;26;20383;-82
2024/04/16 13:09:34;;;;;;;;;;;15.00;1.00;;;;;;5393617;26;19930;-81
2024/04/16 13:11:59;;;;;;;;;;;14.70;1.00;;;;;;5376178;26;20267;-86
2024/04/16 13:14:25;;;;;;;;;;;14.70;1.00;;;;;;5384485;26;19933;-83
2024/04/16 13:16:50;;;;;;;;;;;14.90;1.00;;;;;;5380431;26;19930;-84
2024/04/16 13:19:19;;;;;;;;;;;15.20;1.00;;;;;;5382930;26;19941;-83
2024/04/16 13:21:45;;;;;;;;;;;15.70;1.00;;;;;;5386411;26;19943;-83
2024/04/16 13:24:19;;;;;;;;;;;16.50;99.90;;;;;;5384727;26;19954;-83
2024/04/16 13:26:45;;;;;;;;;;;17.10;99.90;;;;;;5382849;26;19936;-84
2024/04/16 13:29:10;;;;;;;;;;;17.90;99.90;;;;;;5376376;26;19930;-82
2024/04/16 13:31:36;;;;;;;;;;;18.20;99.90;;;;;;5380464;26;19941;-82
2024/04/16 13:34:01;;;;;;;;;;;18.30;99.90;;;;;;5384143;26;19934;-83
2024/04/16 13:36:27;;;;;;;;;;;17.80;99.90;;;;;;5382969;26;20396;-83
2024/04/16 13:38:52;;;;;;;;;;;17.20;99.90;;;;;;5383514;26;19929;-83
2024/04/16 13:41:18;;;;;;;;;;;16.60;99.90;;;;;;5383513;26;20384;-82
2024/04/16 13:43:43;;;;;;;;;;;16.20;99.90;;;;;;5384013;26;19930;-83
2024/04/16 13:46:09;;;;;;;;;;;15.80;99.90;;;;;;5376776;26;19938;-82
2024/04/16 13:48:34;;;;;;;;;;;16.00;99.90;;;;;;5380967;26;19930;-83
2024/04/16 13:51:03;;;;;;;;;;;16.60;99.90;;;;;;5379039;26;19930;-83
2024/04/16 13:53:28;;;;;;;;;;;17.20;99.90;;;;;;5382299;26;19950;-83
2024/04/16 13:55:54;;;;;;;;;;;17.40;99.90;;;;;;5384002;26;19933;-83
2024/04/16 13:58:19;;;;;;;;;;;16.90;99.90;;;;;;5382019;26;19929;-82
2024/04/16 14:00:45;;;;;;;;;;;16.30;99.90;;;;;;5379078;26;19975;-82
2024/04/16 14:03:10;;;;;;;;;;;15.70;99.90;;;;;;5382671;26;20259;-82
2024/04/16 14:05:36;;;;;;;;;;;15.10;99.90;;;;;;5388296;26;19998;-82
2024/04/16 14:08:02;;;;;;;;;;;14.70;99.90;;;;;;5387512;26;19941;-84
2024/04/16 14:10:29;;;;;;;;;;;14.30;1.00;;;;;;5380720;26;19933;-82
2024/04/16 14:12:54;;;;;;;;;;;13.80;1.00;;;;;;5379409;26;19940;-82
2024/04/16 14:15:21;;;;;;;;;;;13.50;59.90;;;;;;5386460;26;19930;-84
2024/04/16 14:17:47;;;;;;;;;;;13.10;1.00;;;;;;5385784;26;19937;-82
2024/04/16 14:20:13;;;;;;;;;;;12.70;20.90;;;;;;5387236;26;19993;-84
2024/04/16 14:22:38;;;;;;;;;;;12.40;99.90;;;;;;5384564;26;20186;-82
2024/04/16 14:25:04;;;;;;;;;;;12.10;1.00;;;;;;5383914;26;19930;-83
2024/04/16 14:27:29;;;;;;;;;;;11.80;1.00;;;;;;5380479;26;20264;-82
2024/04/16 14:29:54;;;;;;;;;;;11.50;1.00;;;;;;5375356;26;19929;-81